sensor_id;sensor_type;location;lat;lon;timestamp;P1;durP1;ratioP1;P2;durP2;ratioP2
9304;SDS011;4690;52.422;13.486;2022-12-26T00:04:34;16.03;;;8.13;;
9304;SDS011;4690;52.422;13.486;2022-12-26T00:07:00;12.37;;;7.73;;
9304;SDS011;4690;52.422;13.486;2022-12-26T00:09:26;10.30;;;7.70;;
9304;SDS011;4690;52.422;13.486;2022-12-26T00:11:51;10.70;;;7.03;;
9304;SDS011;4690;52.422;13.486;2022-12-26T00:14:17;10.20;;;6.73;;
9304;SDS011;4690;52.422;13.486;2022-12-26T00:16:44;12.57;;;7.17;;
9304;SDS011;4690;52.422;13.486;2022-12-26T00:19:11;10.03;;;7.20;;
9304;SDS011;4690;52.422;13.486;2022-12-26T00:21:38;11.27;;;7.03;;
9304;SDS011;4690;52.422;13.486;2022-12-26T00:24:03;8.77;;;6.43;;
9304;SDS011;4690;52.422;13.486;2022-12-26T00:26:30;8.03;;;6.47;;
9304;SDS011;4690;52.422;13.486;2022-12-26T00:28:58;11.00;;;7.33;;
9304;SDS011;4690;52.422;13.486;2022-12-26T00:31:25;9.23;;;7.03;;
9304;SDS011;4690;52.422;13.486;2022-12-26T00:33:55;10.23;;;6.90;;
9304;SDS011;4690;52.422;13.486;2022-12-26T00:36:23;9.57;;;7.07;;
9304;SDS011;4690;52.422;13.486;2022-12-26T00:38:56;10.70;;;7.27;;
9304;SDS011;4690;52.422;13.486;2022-12-26T00:41:24;13.20;;;7.47;;
9304;SDS011;4690;52.422;13.486;2022-12-26T00:43:50;9.27;;;7.03;;
9304;SDS011;4690;52.422;13.486;2022-12-26T00:46:17;8.70;;;6.27;;
9304;SDS011;4690;52.422;13.486;2022-12-26T00:48:43;9.07;;;6.67;;
9304;SDS011;4690;52.422;13.486;2022-12-26T00:51:10;10.47;;;6.50;;
9304;SDS011;4690;52.422;13.486;2022-12-26T00:53:37;8.43;;;6.57;;
9304;SDS011;4690;52.422;13.486;2022-12-26T00:56:03;7.60;;;6.43;;
9304;SDS011;4690;52.422;13.486;2022-12-26T00:58:29;8.30;;;6.73;;
9304;SDS011;4690;52.422;13.486;2022-12-26T01:01:03;9.43;;;6.50;;
9304;SDS011;4690;52.422;13.486;2022-12-26T01:03:50;9.43;;;6.57;;
9304;SDS011;4690;52.422;13.486;2022-12-26T01:06:19;7.27;;;6.10;;
9304;SDS011;4690;52.422;13.486;2022-12-26T01:08:44;9.37;;;6.43;;
9304;SDS011;4690;52.422;13.486;2022-12-26T01:11:11;10.97;;;6.40;;
9304;SDS011;4690;52.422;13.486;2022-12-26T01:13:39;9.47;;;6.63;;
9304;SDS011;4690;52.422;13.486;2022-12-26T01:16:06;9.47;;;6.50;;
9304;SDS011;4690;52.422;13.486;2022-12-26T01:18:32;7.23;;;6.30;;
9304;SDS011;4690;52.422;13.486;2022-12-26T01:21:01;7.17;;;5.67;;
9304;SDS011;4690;52.422;13.486;2022-12-26T01:23:34;10.00;;;6.33;;
9304;SDS011;4690;52.422;13.486;2022-12-26T01:26:00;8.13;;;5.93;;
9304;SDS011;4690;52.422;13.486;2022-12-26T01:28:27;6.77;;;6.07;;
9304;SDS011;4690;52.422;13.486;2022-12-26T01:30:53;7.37;;;5.80;;
9304;SDS011;4690;52.422;13.486;2022-12-26T01:33:18;8.93;;;6.10;;
9304;SDS011;4690;52.422;13.486;2022-12-26T01:35:48;10.80;;;6.43;;
9304;SDS011;4690;52.422;13.486;2022-12-26T01:38:16;9.20;;;6.23;;
9304;SDS011;4690;52.422;13.486;2022-12-26T01:40:42;8.07;;;6.47;;
9304;SDS011;4690;52.422;13.486;2022-12-26T01:43:11;9.80;;;6.13;;
9304;SDS011;4690;52.422;13.486;2022-12-26T01:45:39;10.27;;;6.50;;
9304;SDS011;4690;52.422;13.486;2022-12-26T01:48:17;8.43;;;6.07;;
9304;SDS011;4690;52.422;13.486;2022-12-26T01:51:03;10.37;;;7.00;;
9304;SDS011;4690;52.422;13.486;2022-12-26T01:53:32;6.83;;;6.13;;
9304;SDS011;4690;52.422;13.486;2022-12-26T01:56:04;7.00;;;6.30;;
9304;SDS011;4690;52.422;13.486;2022-12-26T01:58:40;6.97;;;5.93;;
9304;SDS011;4690;52.422;13.486;2022-12-26T02:01:14;8.33;;;6.37;;
9304;SDS011;4690;52.422;13.486;2022-12-26T02:03:43;7.53;;;6.20;;
9304;SDS011;4690;52.422;13.486;2022-12-26T02:06:30;11.90;;;6.60;;
9304;SDS011;4690;52.422;13.486;2022-12-26T02:08:58;7.07;;;6.00;;
9304;SDS011;4690;52.422;13.486;2022-12-26T02:11:26;7.33;;;6.30;;
9304;SDS011;4690;52.422;13.486;2022-12-26T02:14:03;6.40;;;5.80;;
9304;SDS011;4690;52.422;13.486;2022-12-26T02:16:33;6.87;;;5.73;;
9304;SDS011;4690;52.422;13.486;2022-12-26T02:19:03;8.93;;;6.20;;
9304;SDS011;4690;52.422;13.486;2022-12-26T02:21:51;6.93;;;5.93;;
9304;SDS011;4690;52.422;13.486;2022-12-26T02:25:24;9.73;;;6.57;;
9304;SDS011;4690;52.422;13.486;2022-12-26T02:28:23;8.90;;;5.80;;
9304;SDS011;4690;52.422;13.486;2022-12-26T02:34:35;11.57;;;6.23;;
9304;SDS011;4690;52.422;13.486;2022-12-26T02:49:30;6.87;;;6.07;;
9304;SDS011;4690;52.422;13.486;2022-12-26T02:52:41;9.70;;;6.20;;
9304;SDS011;4690;52.422;13.486;2022-12-26T02:55:35;6.77;;;5.80;;
9304;SDS011;4690;52.422;13.486;2022-12-26T02:58:33;9.33;;;5.97;;
9304;SDS011;4690;52.422;13.486;2022-12-26T03:01:32;6.77;;;5.70;;
9304;SDS011;4690;52.422;13.486;2022-12-26T03:04:26;7.10;;;6.40;;
9304;SDS011;4690;52.422;13.486;2022-12-26T03:07:19;8.47;;;6.10;;
9304;SDS011;4690;52.422;13.486;2022-12-26T03:10:16;8.53;;;6.17;;
9304;SDS011;4690;52.422;13.486;2022-12-26T03:13:24;10.17;;;6.40;;
9304;SDS011;4690;52.422;13.486;2022-12-26T03:16:01;6.70;;;6.00;;
9304;SDS011;4690;52.422;13.486;2022-12-26T03:18:54;6.97;;;5.90;;
9304;SDS011;4690;52.422;13.486;2022-12-26T03:21:28;7.60;;;6.00;;
9304;SDS011;4690;52.422;13.486;2022-12-26T03:24:03;8.03;;;5.87;;
9304;SDS011;4690;52.422;13.486;2022-12-26T03:26:32;6.80;;;5.77;;
9304;SDS011;4690;52.422;13.486;2022-12-26T03:29:06;6.50;;;5.80;;
9304;SDS011;4690;52.422;13.486;2022-12-26T03:31:54;8.17;;;6.53;;
9304;SDS011;4690;52.422;13.486;2022-12-26T03:34:21;7.73;;;6.50;;
9304;SDS011;4690;52.422;13.486;2022-12-26T03:40:19;7.10;;;6.33;;
9304;SDS011;4690;52.422;13.486;2022-12-26T03:49:15;8.57;;;6.57;;
9304;SDS011;4690;52.422;13.486;2022-12-26T03:52:13;6.67;;;5.90;;
9304;SDS011;4690;52.422;13.486;2022-12-26T03:55:33;8.97;;;6.80;;
9304;SDS011;4690;52.422;13.486;2022-12-26T03:59:10;8.40;;;6.77;;
9304;SDS011;4690;52.422;13.486;2022-12-26T04:02:06;9.70;;;6.80;;
9304;SDS011;4690;52.422;13.486;2022-12-26T04:04:56;7.43;;;6.67;;
9304;SDS011;4690;52.422;13.486;2022-12-26T04:07:48;9.00;;;6.63;;
9304;SDS011;4690;52.422;13.486;2022-12-26T04:10:41;8.37;;;6.60;;
9304;SDS011;4690;52.422;13.486;2022-12-26T04:16:33;7.40;;;6.60;;
9304;SDS011;4690;52.422;13.486;2022-12-26T04:19:31;6.93;;;6.23;;
9304;SDS011;4690;52.422;13.486;2022-12-26T04:22:29;8.03;;;6.63;;
9304;SDS011;4690;52.422;13.486;2022-12-26T04:25:29;7.20;;;6.50;;
9304;SDS011;4690;52.422;13.486;2022-12-26T04:28:24;6.83;;;6.13;;
9304;SDS011;4690;52.422;13.486;2022-12-26T04:31:13;11.23;;;7.00;;
9304;SDS011;4690;52.422;13.486;2022-12-26T04:34:20;8.20;;;5.97;;
9304;SDS011;4690;52.422;13.486;2022-12-26T04:37:17;8.07;;;6.40;;
9304;SDS011;4690;52.422;13.486;2022-12-26T04:40:07;6.70;;;6.00;;
9304;SDS011;4690;52.422;13.486;2022-12-26T04:43:00;7.00;;;6.30;;
9304;SDS011;4690;52.422;13.486;2022-12-26T04:45:49;6.80;;;5.90;;
9304;SDS011;4690;52.422;13.486;2022-12-26T04:48:15;8.10;;;6.10;;
9304;SDS011;4690;52.422;13.486;2022-12-26T04:50:59;8.50;;;6.27;;
9304;SDS011;4690;52.422;13.486;2022-12-26T04:53:25;7.40;;;6.30;;
9304;SDS011;4690;52.422;13.486;2022-12-26T04:55:51;6.90;;;6.20;;
9304;SDS011;4690;52.422;13.486;2022-12-26T04:58:16;7.17;;;6.47;;
9304;SDS011;4690;52.422;13.486;2022-12-26T05:00:42;12.33;;;6.37;;
9304;SDS011;4690;52.422;13.486;2022-12-26T05:03:11;7.83;;;6.47;;
9304;SDS011;4690;52.422;13.486;2022-12-26T05:05:57;6.40;;;5.80;;
9304;SDS011;4690;52.422;13.486;2022-12-26T05:08:42;7.87;;;6.47;;
9304;SDS011;4690;52.422;13.486;2022-12-26T05:11:29;8.33;;;6.40;;
9304;SDS011;4690;52.422;13.486;2022-12-26T05:13:58;7.30;;;6.60;;
9304;SDS011;4690;52.422;13.486;2022-12-26T05:16:25;7.43;;;6.70;;
9304;SDS011;4690;52.422;13.486;2022-12-26T05:19:11;7.30;;;6.27;;
9304;SDS011;4690;52.422;13.486;2022-12-26T05:21:58;7.03;;;6.30;;
9304;SDS011;4690;52.422;13.486;2022-12-26T05:24:45;6.83;;;5.97;;
9304;SDS011;4690;52.422;13.486;2022-12-26T05:27:34;11.17;;;6.73;;
9304;SDS011;4690;52.422;13.486;2022-12-26T05:30:25;6.80;;;5.80;;
9304;SDS011;4690;52.422;13.486;2022-12-26T05:32:50;6.90;;;6.20;;
9304;SDS011;4690;52.422;13.486;2022-12-26T05:35:35;8.80;;;6.93;;
9304;SDS011;4690;52.422;13.486;2022-12-26T05:38:01;9.37;;;6.10;;
9304;SDS011;4690;52.422;13.486;2022-12-26T05:40:28;6.67;;;5.77;;
9304;SDS011;4690;52.422;13.486;2022-12-26T05:42:54;6.43;;;5.80;;
9304;SDS011;4690;52.422;13.486;2022-12-26T05:45:19;7.97;;;5.80;;
9304;SDS011;4690;52.422;13.486;2022-12-26T05:47:45;7.73;;;5.73;;
9304;SDS011;4690;52.422;13.486;2022-12-26T05:50:11;7.27;;;5.87;;
9304;SDS011;4690;52.422;13.486;2022-12-26T05:52:37;6.53;;;5.83;;
9304;SDS011;4690;52.422;13.486;2022-12-26T05:55:03;7.13;;;5.50;;
9304;SDS011;4690;52.422;13.486;2022-12-26T05:57:29;8.23;;;5.43;;
9304;SDS011;4690;52.422;13.486;2022-12-26T05:59:55;7.20;;;5.47;;
9304;SDS011;4690;52.422;13.486;2022-12-26T06:02:20;6.60;;;5.87;;
9304;SDS011;4690;52.422;13.486;2022-12-26T06:04:46;7.37;;;5.53;;
9304;SDS011;4690;52.422;13.486;2022-12-26T06:07:12;6.43;;;5.13;;
9304;SDS011;4690;52.422;13.486;2022-12-26T06:09:37;8.00;;;5.50;;
9304;SDS011;4690;52.422;13.486;2022-12-26T06:12:03;5.50;;;5.00;;
9304;SDS011;4690;52.422;13.486;2022-12-26T06:14:29;5.43;;;4.77;;
9304;SDS011;4690;52.422;13.486;2022-12-26T06:16:55;5.03;;;4.40;;
9304;SDS011;4690;52.422;13.486;2022-12-26T06:19:21;5.17;;;4.60;;
9304;SDS011;4690;52.422;13.486;2022-12-26T06:21:46;5.23;;;4.63;;
9304;SDS011;4690;52.422;13.486;2022-12-26T06:24:12;5.50;;;5.00;;
9304;SDS011;4690;52.422;13.486;2022-12-26T06:26:38;5.33;;;4.77;;
9304;SDS011;4690;52.422;13.486;2022-12-26T06:29:05;5.27;;;4.77;;
9304;SDS011;4690;52.422;13.486;2022-12-26T06:31:31;5.20;;;4.67;;
9304;SDS011;4690;52.422;13.486;2022-12-26T06:33:57;7.77;;;4.97;;
9304;SDS011;4690;52.422;13.486;2022-12-26T06:36:25;7.20;;;5.00;;
9304;SDS011;4690;52.422;13.486;2022-12-26T06:38:52;5.87;;;5.27;;
9304;SDS011;4690;52.422;13.486;2022-12-26T06:41:20;5.97;;;4.20;;
9304;SDS011;4690;52.422;13.486;2022-12-26T06:43:47;5.57;;;4.97;;
9304;SDS011;4690;52.422;13.486;2022-12-26T06:46:18;5.07;;;4.67;;
9304;SDS011;4690;52.422;13.486;2022-12-26T06:48:46;5.60;;;4.90;;
9304;SDS011;4690;52.422;13.486;2022-12-26T06:51:13;5.20;;;4.70;;
9304;SDS011;4690;52.422;13.486;2022-12-26T06:53:42;5.70;;;4.47;;
9304;SDS011;4690;52.422;13.486;2022-12-26T06:56:13;5.57;;;4.90;;
9304;SDS011;4690;52.422;13.486;2022-12-26T06:58:51;5.13;;;4.57;;
9304;SDS011;4690;52.422;13.486;2022-12-26T07:01:22;4.97;;;4.47;;
9304;SDS011;4690;52.422;13.486;2022-12-26T07:03:50;4.90;;;4.15;;
9304;SDS011;4690;52.422;13.486;2022-12-26T07:06:34;3.90;;;3.60;;
9304;SDS011;4690;52.422;13.486;2022-12-26T07:09:06;4.53;;;4.13;;
9304;SDS011;4690;52.422;13.486;2022-12-26T07:11:38;5.00;;;4.50;;
9304;SDS011;4690;52.422;13.486;2022-12-26T07:14:08;4.67;;;3.93;;
9304;SDS011;4690;52.422;13.486;2022-12-26T07:16:34;4.47;;;3.87;;
9304;SDS011;4690;52.422;13.486;2022-12-26T07:19:02;4.60;;;4.10;;
9304;SDS011;4690;52.422;13.486;2022-12-26T07:21:29;4.00;;;3.67;;
9304;SDS011;4690;52.422;13.486;2022-12-26T07:23:55;4.00;;;3.60;;
9304;SDS011;4690;52.422;13.486;2022-12-26T07:26:21;4.20;;;3.73;;
9304;SDS011;4690;52.422;13.486;2022-12-26T07:28:56;3.93;;;3.53;;
9304;SDS011;4690;52.422;13.486;2022-12-26T07:31:23;6.17;;;4.20;;
9304;SDS011;4690;52.422;13.486;2022-12-26T07:33:52;3.87;;;3.53;;
9304;SDS011;4690;52.422;13.486;2022-12-26T07:36:20;4.33;;;3.43;;
9304;SDS011;4690;52.422;13.486;2022-12-26T07:38:51;4.57;;;3.67;;
9304;SDS011;4690;52.422;13.486;2022-12-26T07:41:17;4.17;;;3.50;;
9304;SDS011;4690;52.422;13.486;2022-12-26T07:44:07;3.97;;;3.40;;
9304;SDS011;4690;52.422;13.486;2022-12-26T07:46:36;3.97;;;3.60;;
9304;SDS011;4690;52.422;13.486;2022-12-26T07:49:03;5.13;;;3.60;;
9304;SDS011;4690;52.422;13.486;2022-12-26T07:51:28;5.77;;;3.53;;
9304;SDS011;4690;52.422;13.486;2022-12-26T07:53:54;4.13;;;3.73;;
9304;SDS011;4690;52.422;13.486;2022-12-26T07:56:20;4.17;;;3.77;;
9304;SDS011;4690;52.422;13.486;2022-12-26T07:58:49;4.63;;;3.63;;
9304;SDS011;4690;52.422;13.486;2022-12-26T08:01:16;5.37;;;4.20;;
9304;SDS011;4690;52.422;13.486;2022-12-26T08:03:43;4.90;;;4.00;;
9304;SDS011;4690;52.422;13.486;2022-12-26T08:06:09;4.10;;;3.60;;
9304;SDS011;4690;52.422;13.486;2022-12-26T08:08:36;4.83;;;3.77;;
9304;SDS011;4690;52.422;13.486;2022-12-26T08:11:04;4.67;;;4.27;;
9304;SDS011;4690;52.422;13.486;2022-12-26T08:13:31;4.40;;;4.00;;
9304;SDS011;4690;52.422;13.486;2022-12-26T08:15:58;4.13;;;3.73;;
9304;SDS011;4690;52.422;13.486;2022-12-26T08:18:28;4.67;;;3.67;;
9304;SDS011;4690;52.422;13.486;2022-12-26T08:20:54;4.03;;;3.50;;
9304;SDS011;4690;52.422;13.486;2022-12-26T08:23:22;7.17;;;3.43;;
9304;SDS011;4690;52.422;13.486;2022-12-26T08:25:48;4.03;;;3.53;;
9304;SDS011;4690;52.422;13.486;2022-12-26T08:28:14;4.63;;;3.83;;
9304;SDS011;4690;52.422;13.486;2022-12-26T08:30:41;3.83;;;3.47;;
9304;SDS011;4690;52.422;13.486;2022-12-26T08:33:07;4.63;;;3.47;;
9304;SDS011;4690;52.422;13.486;2022-12-26T08:35:35;3.67;;;3.37;;
9304;SDS011;4690;52.422;13.486;2022-12-26T08:38:03;4.83;;;3.83;;
9304;SDS011;4690;52.422;13.486;2022-12-26T08:40:29;5.63;;;4.20;;
9304;SDS011;4690;52.422;13.486;2022-12-26T08:42:55;4.73;;;4.23;;
9304;SDS011;4690;52.422;13.486;2022-12-26T08:45:21;5.47;;;4.70;;
9304;SDS011;4690;52.422;13.486;2022-12-26T08:47:48;6.20;;;4.57;;
9304;SDS011;4690;52.422;13.486;2022-12-26T08:50:15;7.50;;;4.93;;
9304;SDS011;4690;52.422;13.486;2022-12-26T08:52:41;4.77;;;4.27;;
9304;SDS011;4690;52.422;13.486;2022-12-26T08:55:08;4.40;;;3.97;;
9304;SDS011;4690;52.422;13.486;2022-12-26T08:57:34;5.33;;;4.50;;
9304;SDS011;4690;52.422;13.486;2022-12-26T09:00:00;7.20;;;4.77;;
9304;SDS011;4690;52.422;13.486;2022-12-26T09:02:28;5.10;;;4.60;;
9304;SDS011;4690;52.422;13.486;2022-12-26T09:04:53;5.77;;;5.17;;
9304;SDS011;4690;52.422;13.486;2022-12-26T09:07:19;4.93;;;4.43;;
9304;SDS011;4690;52.422;13.486;2022-12-26T09:09:45;5.30;;;4.27;;
9304;SDS011;4690;52.422;13.486;2022-12-26T09:12:12;5.47;;;4.57;;
9304;SDS011;4690;52.422;13.486;2022-12-26T09:14:38;5.07;;;4.60;;
9304;SDS011;4690;52.422;13.486;2022-12-26T09:17:03;6.53;;;4.47;;
9304;SDS011;4690;52.422;13.486;2022-12-26T09:19:29;5.90;;;4.67;;
9304;SDS011;4690;52.422;13.486;2022-12-26T09:21:56;5.13;;;4.57;;
9304;SDS011;4690;52.422;13.486;2022-12-26T09:24:41;5.00;;;4.60;;
9304;SDS011;4690;52.422;13.486;2022-12-26T09:27:08;5.13;;;4.63;;
9304;SDS011;4690;52.422;13.486;2022-12-26T09:29:35;4.70;;;4.30;;
9304;SDS011;4690;52.422;13.486;2022-12-26T09:32:02;4.90;;;4.07;;
9304;SDS011;4690;52.422;13.486;2022-12-26T09:34:29;5.17;;;4.20;;
9304;SDS011;4690;52.422;13.486;2022-12-26T09:36:54;4.80;;;4.30;;
9304;SDS011;4690;52.422;13.486;2022-12-26T09:39:20;4.70;;;3.70;;
9304;SDS011;4690;52.422;13.486;2022-12-26T09:48:31;5.50;;;4.03;;
9304;SDS011;4690;52.422;13.486;2022-12-26T09:51:07;4.27;;;3.87;;
9304;SDS011;4690;52.422;13.486;2022-12-26T09:53:35;7.03;;;4.07;;
9304;SDS011;4690;52.422;13.486;2022-12-26T09:56:10;6.80;;;4.17;;
9304;SDS011;4690;52.422;13.486;2022-12-26T10:01:30;6.43;;;4.10;;
9304;SDS011;4690;52.422;13.486;2022-12-26T10:04:00;4.67;;;4.20;;
9304;SDS011;4690;52.422;13.486;2022-12-26T10:06:39;4.17;;;3.80;;
9304;SDS011;4690;52.422;13.486;2022-12-26T10:09:15;6.23;;;3.37;;
9304;SDS011;4690;52.422;13.486;2022-12-26T10:17:43;4.60;;;4.20;;
9304;SDS011;4690;52.422;13.486;2022-12-26T10:20:48;7.37;;;4.20;;
9304;SDS011;4690;52.422;13.486;2022-12-26T10:23:47;4.20;;;3.80;;
9304;SDS011;4690;52.422;13.486;2022-12-26T10:26:22;5.10;;;4.20;;
9304;SDS011;4690;52.422;13.486;2022-12-26T10:31:41;5.50;;;3.50;;
9304;SDS011;4690;52.422;13.486;2022-12-26T10:34:28;4.63;;;3.47;;
9304;SDS011;4690;52.422;13.486;2022-12-26T10:37:23;4.83;;;3.60;;
9304;SDS011;4690;52.422;13.486;2022-12-26T10:42:37;5.70;;;3.53;;
9304;SDS011;4690;52.422;13.486;2022-12-26T10:45:16;4.80;;;3.27;;
9304;SDS011;4690;52.422;13.486;2022-12-26T10:48:07;3.87;;;3.30;;
9304;SDS011;4690;52.422;13.486;2022-12-26T10:50:37;3.57;;;3.27;;
9304;SDS011;4690;52.422;13.486;2022-12-26T10:53:09;4.00;;;3.60;;
9304;SDS011;4690;52.422;13.486;2022-12-26T10:55:37;3.73;;;3.40;;
9304;SDS011;4690;52.422;13.486;2022-12-26T10:58:22;3.63;;;2.97;;
9304;SDS011;4690;52.422;13.486;2022-12-26T11:00:58;5.73;;;3.20;;
9304;SDS011;4690;52.422;13.486;2022-12-26T11:03:55;3.70;;;3.40;;
9304;SDS011;4690;52.422;13.486;2022-12-26T11:06:25;3.67;;;3.37;;
9304;SDS011;4690;52.422;13.486;2022-12-26T11:09:03;3.37;;;3.07;;
9304;SDS011;4690;52.422;13.486;2022-12-26T11:11:34;4.00;;;3.60;;
9304;SDS011;4690;52.422;13.486;2022-12-26T11:17:13;4.17;;;3.77;;
9304;SDS011;4690;52.422;13.486;2022-12-26T11:22:43;3.47;;;3.10;;
9304;SDS011;4690;52.422;13.486;2022-12-26T11:27:59;4.00;;;3.50;;
9304;SDS011;4690;52.422;13.486;2022-12-26T11:30:50;3.43;;;3.13;;
9304;SDS011;4690;52.422;13.486;2022-12-26T11:33:24;3.17;;;2.87;;
9304;SDS011;4690;52.422;13.486;2022-12-26T11:36:20;4.30;;;3.13;;
9304;SDS011;4690;52.422;13.486;2022-12-26T11:46:39;4.67;;;3.50;;
9304;SDS011;4690;52.422;13.486;2022-12-26T11:49:16;4.20;;;3.80;;
9304;SDS011;4690;52.422;13.486;2022-12-26T11:51:58;4.40;;;3.97;;
9304;SDS011;4690;52.422;13.486;2022-12-26T11:54:34;4.07;;;3.67;;
9304;SDS011;4690;52.422;13.486;2022-12-26T11:59:54;4.20;;;3.80;;
9304;SDS011;4690;52.422;13.486;2022-12-26T12:02:40;4.73;;;4.20;;
9304;SDS011;4690;52.422;13.486;2022-12-26T12:05:12;4.83;;;3.80;;
9304;SDS011;4690;52.422;13.486;2022-12-26T12:16:49;5.13;;;3.67;;
9304;SDS011;4690;52.422;13.486;2022-12-26T12:27:32;4.93;;;3.60;;
9304;SDS011;4690;52.422;13.486;2022-12-26T12:33:37;4.80;;;4.17;;
9304;SDS011;4690;52.422;13.486;2022-12-26T12:39:59;5.37;;;4.07;;
9304;SDS011;4690;52.422;13.486;2022-12-26T12:52:19;5.27;;;4.70;;
9304;SDS011;4690;52.422;13.486;2022-12-26T13:01:05;5.60;;;4.97;;
9304;SDS011;4690;52.422;13.486;2022-12-26T13:03:39;4.97;;;4.17;;
9304;SDS011;4690;52.422;13.486;2022-12-26T13:06:37;4.90;;;3.80;;
9304;SDS011;4690;52.422;13.486;2022-12-26T13:12:05;5.13;;;4.10;;
9304;SDS011;4690;52.422;13.486;2022-12-26T13:14:51;5.43;;;3.93;;
9304;SDS011;4690;52.422;13.486;2022-12-26T13:17:26;4.20;;;3.80;;
9304;SDS011;4690;52.422;13.486;2022-12-26T13:20:00;5.63;;;4.10;;
9304;SDS011;4690;52.422;13.486;2022-12-26T13:22:44;4.50;;;4.00;;
9304;SDS011;4690;52.422;13.486;2022-12-26T13:25:39;4.83;;;4.37;;
9304;SDS011;4690;52.422;13.486;2022-12-26T13:28:26;4.07;;;3.67;;
9304;SDS011;4690;52.422;13.486;2022-12-26T13:30:58;3.87;;;3.57;;
9304;SDS011;4690;52.422;13.486;2022-12-26T13:33:23;4.30;;;3.90;;
9304;SDS011;4690;52.422;13.486;2022-12-26T13:38:21;5.83;;;4.67;;
9304;SDS011;4690;52.422;13.486;2022-12-26T13:40:57;4.60;;;4.20;;
9304;SDS011;4690;52.422;13.486;2022-12-26T13:54:36;6.33;;;3.67;;
9304;SDS011;4690;52.422;13.486;2022-12-26T14:00:14;5.53;;;4.40;;
9304;SDS011;4690;52.422;13.486;2022-12-26T14:02:54;5.47;;;4.30;;
9304;SDS011;4690;52.422;13.486;2022-12-26T14:09:00;4.90;;;4.40;;
9304;SDS011;4690;52.422;13.486;2022-12-26T14:15:54;4.50;;;4.10;;
9304;SDS011;4690;52.422;13.486;2022-12-26T14:23:54;5.30;;;4.80;;
9304;SDS011;4690;52.422;13.486;2022-12-26T14:29:22;5.57;;;4.67;;
9304;SDS011;4690;52.422;13.486;2022-12-26T14:35:22;4.87;;;4.47;;
9304;SDS011;4690;52.422;13.486;2022-12-26T14:38:18;5.60;;;4.73;;
9304;SDS011;4690;52.422;13.486;2022-12-26T14:43:54;5.07;;;4.57;;
9304;SDS011;4690;52.422;13.486;2022-12-26T14:48:58;5.73;;;5.20;;
9304;SDS011;4690;52.422;13.486;2022-12-26T14:51:42;5.50;;;4.90;;
9304;SDS011;4690;52.422;13.486;2022-12-26T14:54:16;5.77;;;4.80;;
9304;SDS011;4690;52.422;13.486;2022-12-26T14:56:59;5.43;;;4.93;;
9304;SDS011;4690;52.422;13.486;2022-12-26T14:59:32;5.40;;;4.90;;
9304;SDS011;4690;52.422;13.486;2022-12-26T15:29:00;6.77;;;5.10;;
9304;SDS011;4690;52.422;13.486;2022-12-26T15:51:31;7.90;;;6.47;;
9304;SDS011;4690;52.422;13.486;2022-12-26T15:54:23;6.30;;;5.53;;
9304;SDS011;4690;52.422;13.486;2022-12-26T15:57:33;7.47;;;5.93;;
9304;SDS011;4690;52.422;13.486;2022-12-26T16:00:39;5.30;;;4.80;;
9304;SDS011;4690;52.422;13.486;2022-12-26T16:03:19;5.37;;;4.87;;
9304;SDS011;4690;52.422;13.486;2022-12-26T16:06:44;5.10;;;4.60;;
9304;SDS011;4690;52.422;13.486;2022-12-26T16:09:33;5.23;;;4.23;;
9304;SDS011;4690;52.422;13.486;2022-12-26T16:17:33;5.20;;;4.70;;
9304;SDS011;4690;52.422;13.486;2022-12-26T16:20:10;3.90;;;3.50;;
9304;SDS011;4690;52.422;13.486;2022-12-26T16:23:20;5.50;;;3.50;;
9304;SDS011;4690;52.422;13.486;2022-12-26T16:25:51;3.77;;;3.40;;
9304;SDS011;4690;52.422;13.486;2022-12-26T16:28:26;3.90;;;3.50;;
9304;SDS011;4690;52.422;13.486;2022-12-26T16:31:05;3.60;;;3.20;;
9304;SDS011;4690;52.422;13.486;2022-12-26T16:33:38;6.00;;;3.30;;
9304;SDS011;4690;52.422;13.486;2022-12-26T16:36:07;4.20;;;3.40;;
9304;SDS011;4690;52.422;13.486;2022-12-26T16:38:38;4.27;;;3.00;;
9304;SDS011;4690;52.422;13.486;2022-12-26T16:41:55;4.03;;;2.80;;
9304;SDS011;4690;52.422;13.486;2022-12-26T16:43:57;2.57;;;2.30;;
9304;SDS011;4690;52.422;13.486;2022-12-26T16:46:58;3.37;;;2.77;;
9304;SDS011;4690;52.422;13.486;2022-12-26T16:49:27;3.50;;;2.57;;
9304;SDS011;4690;52.422;13.486;2022-12-26T16:51:56;4.90;;;2.60;;
9304;SDS011;4690;52.422;13.486;2022-12-26T16:54:34;2.40;;;2.10;;
9304;SDS011;4690;52.422;13.486;2022-12-26T16:57:08;4.93;;;2.60;;
9304;SDS011;4690;52.422;13.486;2022-12-26T16:59:54;3.00;;;2.50;;
9304;SDS011;4690;52.422;13.486;2022-12-26T17:02:24;2.90;;;2.57;;
9304;SDS011;4690;52.422;13.486;2022-12-26T17:05:16;2.53;;;2.33;;
9304;SDS011;4690;52.422;13.486;2022-12-26T17:07:54;3.67;;;3.00;;
9304;SDS011;4690;52.422;13.486;2022-12-26T17:10:25;6.23;;;5.73;;
9304;SDS011;4690;52.422;13.486;2022-12-26T17:13:06;3.20;;;2.90;;
9304;SDS011;4690;52.422;13.486;2022-12-26T17:15:35;4.60;;;4.07;;
9304;SDS011;4690;52.422;13.486;2022-12-26T17:18:27;5.20;;;4.57;;
9304;SDS011;4690;52.422;13.486;2022-12-26T17:24:44;3.67;;;3.37;;
9304;SDS011;4690;52.422;13.486;2022-12-26T17:27:17;3.93;;;3.53;;
9304;SDS011;4690;52.422;13.486;2022-12-26T17:32:38;4.17;;;3.33;;
9304;SDS011;4690;52.422;13.486;2022-12-26T17:37:50;2.87;;;2.57;;
9304;SDS011;4690;52.422;13.486;2022-12-26T17:40:33;2.60;;;2.40;;
9304;SDS011;4690;52.422;13.486;2022-12-26T17:43:04;2.83;;;2.53;;
9304;SDS011;4690;52.422;13.486;2022-12-26T17:45:34;2.97;;;2.67;;
9304;SDS011;4690;52.422;13.486;2022-12-26T17:48:00;4.47;;;2.80;;
9304;SDS011;4690;52.422;13.486;2022-12-26T17:50:36;2.47;;;2.10;;
9304;SDS011;4690;52.422;13.486;2022-12-26T17:55:48;2.60;;;2.40;;
9304;SDS011;4690;52.422;13.486;2022-12-26T17:58:16;3.80;;;3.50;;
9304;SDS011;4690;52.422;13.486;2022-12-26T18:00:42;4.90;;;2.27;;
9304;SDS011;4690;52.422;13.486;2022-12-26T18:03:09;3.70;;;2.53;;
9304;SDS011;4690;52.422;13.486;2022-12-26T18:05:35;3.60;;;2.40;;
9304;SDS011;4690;52.422;13.486;2022-12-26T18:08:02;4.23;;;2.20;;
9304;SDS011;4690;52.422;13.486;2022-12-26T18:10:30;3.37;;;2.10;;
9304;SDS011;4690;52.422;13.486;2022-12-26T18:13:00;7.43;;;2.20;;
9304;SDS011;4690;52.422;13.486;2022-12-26T18:15:27;2.50;;;2.30;;
9304;SDS011;4690;52.422;13.486;2022-12-26T18:17:55;4.90;;;3.00;;
9304;SDS011;4690;52.422;13.486;2022-12-26T18:22:52;2.40;;;2.10;;
9304;SDS011;4690;52.422;13.486;2022-12-26T18:25:20;2.70;;;2.00;;
9304;SDS011;4690;52.422;13.486;2022-12-26T18:27:48;3.10;;;2.80;;
9304;SDS011;4690;52.422;13.486;2022-12-26T18:30:17;3.73;;;3.33;;
9304;SDS011;4690;52.422;13.486;2022-12-26T18:32:48;2.53;;;2.23;;
9304;SDS011;4690;52.422;13.486;2022-12-26T18:35:16;3.63;;;2.37;;
9304;SDS011;4690;52.422;13.486;2022-12-26T18:37:44;3.00;;;2.70;;
9304;SDS011;4690;52.422;13.486;2022-12-26T18:43:04;3.60;;;3.30;;
9304;SDS011;4690;52.422;13.486;2022-12-26T18:45:32;3.37;;;2.30;;
9304;SDS011;4690;52.422;13.486;2022-12-26T18:48:00;2.50;;;2.30;;
9304;SDS011;4690;52.422;13.486;2022-12-26T18:50:30;2.77;;;2.30;;
9304;SDS011;4690;52.422;13.486;2022-12-26T18:52:57;4.07;;;2.60;;
9304;SDS011;4690;52.422;13.486;2022-12-26T18:55:24;3.20;;;2.17;;
9304;SDS011;4690;52.422;13.486;2022-12-26T18:57:50;3.47;;;2.70;;
9304;SDS011;4690;52.422;13.486;2022-12-26T19:00:18;4.90;;;2.53;;
9304;SDS011;4690;52.422;13.486;2022-12-26T19:02:46;3.63;;;2.20;;
9304;SDS011;4690;52.422;13.486;2022-12-26T19:05:14;2.30;;;2.10;;
9304;SDS011;4690;52.422;13.486;2022-12-26T19:07:42;3.30;;;3.00;;
9304;SDS011;4690;52.422;13.486;2022-12-26T19:10:09;3.00;;;2.30;;
9304;SDS011;4690;52.422;13.486;2022-12-26T19:12:35;2.70;;;2.30;;
9304;SDS011;4690;52.422;13.486;2022-12-26T19:15:02;2.20;;;2.00;;
9304;SDS011;4690;52.422;13.486;2022-12-26T19:17:28;3.80;;;2.00;;
9304;SDS011;4690;52.422;13.486;2022-12-26T19:19:54;4.90;;;2.10;;
9304;SDS011;4690;52.422;13.486;2022-12-26T19:22:20;2.70;;;2.00;;
9304;SDS011;4690;52.422;13.486;2022-12-26T19:24:45;3.30;;;1.90;;
9304;SDS011;4690;52.422;13.486;2022-12-26T19:27:11;2.37;;;1.60;;
9304;SDS011;4690;52.422;13.486;2022-12-26T19:29:37;2.93;;;1.80;;
9304;SDS011;4690;52.422;13.486;2022-12-26T19:32:03;2.30;;;1.70;;